HOURLY OBS INDEX

038

Channel Country

BIRDSVILLE AIRPORT

Site: 038026
Alt: 46.6m
0.0km WNW of BIRDSVILLE


  Time     Wind        Temp  DP   Baro     Rain since   Rain past  Vis(m), Cloud(base in m), Weather
  local        km/h                         9am  last   hr   10m    
Tue 15:00  SSW 24/ 32  38.2  8.0  1008.6    0.0   0.0   0.0   0.0   ----- 
Tue 15:00  SSW 24/ 32  38.2  8.0  1008.6    0.0   0.0  ----   0.0   ----- 
Tue 15:30    S 22/ 35  38.0  7.8  1008.3    0.0   0.0   0.0   0.0   ----- 
Tue 16:00    S 24/ 33  37.9  8.6  1008.2    0.0   0.0   0.0   0.0   ----- 
Tue 16:30  SSW 26/ 35  37.4  8.2  1007.8    0.0   0.0   0.0   0.0   ----- 
Tue 17:00  SSW 26/ 32  37.3  7.3  1008.0    0.0   0.0   0.0   0.0   ----- 
Tue 17:30  SSW 24/ 32  37.2  8.1  1007.9    0.0   0.0   0.0   0.0   ----- 
Tue 18:00  SSW 22/ 28  36.1  8.8  1008.0    0.0   0.0   0.0   0.0   ----- 
Tue 18:30  SSW 17/ 20  34.9 10.7  1008.2    0.0   0.0   0.0   0.0   ----- 
Tue 18:30  SSW 17/ 20  34.9 10.7  1008.2    0.0   0.0  ----   0.0   ----- 
Tue 18:30  SSW 17/ 20  34.9 10.7  1008.2    0.0   0.0  ----   0.0   ----- 
Tue 18:30  SSW 17/ 20  34.9 10.7  1008.2    0.0   0.0  ----   0.0   ----- 
Tue 19:00   SW 15/ 17  33.1 12.7  1008.4    0.0   0.0   0.0   0.0   ----- 
Tue 19:30  SSW 15/ 15  31.7 13.0  1008.7    0.0   0.0   0.0   0.0   ----- 
Tue 20:00  SSW 13/ 13  30.5 12.9  1009.1    0.0   0.0   0.0   0.0   ----- 
Tue 20:00  SSW 13/ 13  30.5 12.9  1009.1    0.0   0.0  ----   0.0   ----- 
Tue 20:00  SSW 13/ 13  30.5 12.9  1009.1    0.0   0.0  ----   0.0   ----- 

WINDORAH AIRPORT

Site: 038076
Alt: 132.2m
2km NNE of WINDORAH


  Time     Wind        Temp  DP   Baro     Rain since   Rain past  Vis(m), Cloud(base in m), Weather
  local        km/h                         9am  last   hr   10m    
Tue 15:00    E  9/ 22  39.2  9.7  1007.1    0.0   0.0   0.0   0.0   10000|SC3000 
Tue 15:00    E  9/ 22  39.2  9.7  1007.1    0.0   0.0  ----   0.0   10000|SC3000 
Tue 15:30    S 11/ 20  39.5  9.9  1006.9    0.0   0.0   0.0   0.0   10000 
Tue 16:00   SE 11/ 19  38.1  8.8  1006.7    0.0   0.0   0.0   0.0   10000 
Tue 16:30    S  7/ 15  38.6  9.2  1006.7    0.0   0.0   0.0   0.0   10000 
Tue 17:00    S 15/ 26  39.0  8.6  1006.5    0.0   0.0   0.0   0.0   10000 
Tue 17:30    S 20/ 28  38.1  9.6  1006.5    0.0   0.0   0.0   0.0   10000 
Tue 18:00  SSE 13/ 22  37.8 10.2  1006.7    0.0   0.0   0.0   0.0   10000|SC3150 
Tue 18:30    S 20/ 22  37.1 10.4  1007.0    0.0   0.0   0.0   0.0   10000 
Tue 18:30    S 20/ 22  37.1 10.4  1007.0    0.0   0.0  ----   0.0   10000 
Tue 18:30    S 20/ 22  37.1 10.4  1007.0    0.0   0.0  ----   0.0   10000 
Tue 18:30    S 20/ 22  37.1 10.4  1007.0    0.0   0.0  ----   0.0   10000 
Tue 19:00    S 13/ 17  36.3 10.5  1007.3    0.0   0.0   0.0   0.0   10000 
Tue 19:30    S 13/ 19  35.4  9.7  1007.8    0.0   0.0   0.0   0.0   10000 
Tue 20:00    S 13/ 17  34.5  9.7  1008.3    0.0   0.0   0.0   0.0   10000 
Tue 20:00    S 13/ 17  34.5  9.7  1008.3    0.0   0.0  ----   0.0   10000 
Tue 20:00    S 13/ 17  34.5  9.7  1008.3    0.0   0.0  ----   0.0   10000